sensor_id;sensor_type;location;lat;lon;timestamp;pressure;altitude;pressure_sealevel;temperature;humidity
43707;BME280;61348;53.392;-6.248;2022-09-09T00:04:15;99928.69;;;15.66;92.64
43707;BME280;61348;53.392;-6.248;2022-09-09T00:06:50;99934.25;;;15.66;92.92
43707;BME280;61348;53.392;-6.248;2022-09-09T00:09:22;99940.66;;;15.66;92.93
43707;BME280;61348;53.392;-6.248;2022-09-09T00:14:55;99940.63;;;15.63;93.29
43707;BME280;61348;53.392;-6.248;2022-09-09T00:17:36;99947.00;;;15.60;93.37
43707;BME280;61348;53.392;-6.248;2022-09-09T00:22:48;99942.22;;;15.57;93.68
43707;BME280;61348;53.392;-6.248;2022-09-09T00:25:47;99951.81;;;15.56;93.88
43707;BME280;61348;53.392;-6.248;2022-09-09T00:28:20;99938.25;;;15.51;93.70
43707;BME280;61348;53.392;-6.248;2022-09-09T00:30:47;99948.59;;;15.50;93.98
43707;BME280;61348;53.392;-6.248;2022-09-09T00:33:19;99939.44;;;15.50;94.10
43707;BME280;61348;53.392;-6.248;2022-09-09T00:35:49;99941.84;;;15.48;94.16
43707;BME280;61348;53.392;-6.248;2022-09-09T00:38:37;99944.22;;;15.46;93.83
43707;BME280;61348;53.392;-6.248;2022-09-09T00:57:19;99920.69;;;15.33;95.19
43707;BME280;61348;53.392;-6.248;2022-09-09T00:59:59;99925.47;;;15.32;95.33
43707;BME280;61348;53.392;-6.248;2022-09-09T01:02:39;99912.31;;;15.33;95.31
43707;BME280;61348;53.392;-6.248;2022-09-09T01:05:18;99920.69;;;15.33;95.46
43707;BME280;61348;53.392;-6.248;2022-09-09T01:07:48;99911.88;;;15.31;95.50
43707;BME280;61348;53.392;-6.248;2022-09-09T01:10:44;99911.09;;;15.27;95.54
43707;BME280;61348;53.392;-6.248;2022-09-09T01:13:21;99916.28;;;15.28;95.39
43707;BME280;61348;53.392;-6.248;2022-09-09T01:15:49;99917.88;;;15.25;95.75
43707;BME280;61348;53.392;-6.248;2022-09-09T01:18:17;99920.28;;;15.27;95.86
43707;BME280;61348;53.392;-6.248;2022-09-09T01:26:26;99931.41;;;15.23;96.09
43707;BME280;61348;53.392;-6.248;2022-09-09T01:28:53;99922.25;;;15.23;96.12
43707;BME280;61348;53.392;-6.248;2022-09-09T01:31:38;99910.28;;;15.22;96.57
43707;BME280;61348;53.392;-6.248;2022-09-09T01:34:29;99916.69;;;15.19;96.24
43707;BME280;61348;53.392;-6.248;2022-09-09T01:37:07;99917.47;;;15.16;96.42
43707;BME280;61348;53.392;-6.248;2022-09-09T01:39:37;99917.47;;;15.16;96.58
43707;BME280;61348;53.392;-6.248;2022-09-09T01:42:08;99921.44;;;15.15;96.63
43707;BME280;61348;53.392;-6.248;2022-09-09T01:44:42;99916.28;;;15.14;97.01
43707;BME280;61348;53.392;-6.248;2022-09-09T01:47:10;99915.47;;;15.13;96.89
43707;BME280;61348;53.392;-6.248;2022-09-09T01:49:37;99923.84;;;15.13;96.82
43707;BME280;61348;53.392;-6.248;2022-09-09T01:52:05;99923.03;;;15.13;96.99
43707;BME280;61348;53.392;-6.248;2022-09-09T01:54:32;99915.06;;;15.15;97.12
43707;BME280;61348;53.392;-6.248;2022-09-09T01:57:31;99913.47;;;15.17;97.31
43707;BME280;61348;53.392;-6.248;2022-09-09T02:00:04;99917.47;;;15.16;97.32
43707;BME280;61348;53.392;-6.248;2022-09-09T02:05:45;99911.09;;;15.16;97.39
43707;BME280;61348;53.392;-6.248;2022-09-09T02:08:43;99913.50;;;15.14;97.59
43707;BME280;61348;53.392;-6.248;2022-09-09T02:11:14;99912.28;;;15.11;97.61
43707;BME280;61348;53.392;-6.248;2022-09-09T02:13:43;99900.72;;;15.09;97.56
43707;BME280;61348;53.392;-6.248;2022-09-09T02:16:40;99906.72;;;15.11;97.85
43707;BME280;61348;53.392;-6.248;2022-09-09T02:19:14;99917.88;;;15.11;97.92
43707;BME280;61348;53.392;-6.248;2022-09-09T02:21:44;99917.44;;;15.09;97.96
43707;BME280;61348;53.392;-6.248;2022-09-09T02:24:15;99907.06;;;15.06;97.97
43707;BME280;61348;53.392;-6.248;2022-09-09T02:26:49;99910.66;;;15.07;98.18
43707;BME280;61348;53.392;-6.248;2022-09-09T02:29:25;99915.03;;;15.04;98.03
43707;BME280;61348;53.392;-6.248;2022-09-09T02:31:54;99908.66;;;15.04;98.10
43707;BME280;61348;53.392;-6.248;2022-09-09T02:34:24;99906.31;;;15.06;98.19
43707;BME280;61348;53.392;-6.248;2022-09-09T02:36:54;99915.03;;;15.04;98.32
43707;BME280;61348;53.392;-6.248;2022-09-09T02:39:23;99906.28;;;15.02;98.27
43707;BME280;61348;53.392;-6.248;2022-09-09T02:41:50;99909.06;;;15.02;98.34
43707;BME280;61348;53.392;-6.248;2022-09-09T02:44:18;99913.47;;;15.03;98.42
43707;BME280;61348;53.392;-6.248;2022-09-09T02:52:13;99897.53;;;15.00;98.75
43707;BME280;61348;53.392;-6.248;2022-09-09T02:54:42;99900.31;;;15.00;98.67
43707;BME280;61348;53.392;-6.248;2022-09-09T02:57:19;99907.88;;;15.00;98.74
43707;BME280;61348;53.392;-6.248;2022-09-09T02:59:47;99898.31;;;14.97;98.79
43707;BME280;61348;53.392;-6.248;2022-09-09T03:02:17;99895.13;;;14.95;98.82
43707;BME280;61348;53.392;-6.248;2022-09-09T03:04:45;99893.53;;;14.94;98.82
43707;BME280;61348;53.392;-6.248;2022-09-09T03:07:20;99891.53;;;14.95;98.96
43707;BME280;61348;53.392;-6.248;2022-09-09T03:09:47;99884.78;;;14.92;99.17
43707;BME280;61348;53.392;-6.248;2022-09-09T03:12:14;99889.13;;;14.93;99.24
43707;BME280;61348;53.392;-6.248;2022-09-09T03:14:41;99885.56;;;14.96;99.17
43707;BME280;61348;53.392;-6.248;2022-09-09T03:17:08;99884.75;;;14.96;99.27
43707;BME280;61348;53.392;-6.248;2022-09-09T03:19:35;99891.13;;;14.96;99.26
43707;BME280;61348;53.392;-6.248;2022-09-09T03:22:02;99892.75;;;14.97;99.39
43707;BME280;61348;53.392;-6.248;2022-09-09T03:24:30;99888.75;;;14.95;99.35
43707;BME280;61348;53.392;-6.248;2022-09-09T03:26:57;99895.13;;;14.92;99.58
43707;BME280;61348;53.392;-6.248;2022-09-09T03:29:23;99894.31;;;14.91;99.68
43707;BME280;61348;53.392;-6.248;2022-09-09T03:31:50;99892.72;;;14.90;99.79
43707;BME280;61348;53.392;-6.248;2022-09-09T03:34:17;99902.28;;;14.89;99.78
43707;BME280;61348;53.392;-6.248;2022-09-09T03:36:45;99891.13;;;14.89;100.00
43707;BME280;61348;53.392;-6.248;2022-09-09T03:39:12;99893.91;;;14.89;100.00
43707;BME280;61348;53.392;-6.248;2022-09-09T03:41:41;99896.69;;;14.89;100.00
43707;BME280;61348;53.392;-6.248;2022-09-09T03:44:08;99903.47;;;14.88;100.00
43707;BME280;61348;53.392;-6.248;2022-09-09T03:46:34;99897.47;;;14.86;100.00
43707;BME280;61348;53.392;-6.248;2022-09-09T03:49:01;99905.44;;;14.84;100.00
43707;BME280;61348;53.392;-6.248;2022-09-09T03:51:28;99901.06;;;14.83;100.00
43707;BME280;61348;53.392;-6.248;2022-09-09T03:53:55;99899.88;;;14.84;100.00
43707;BME280;61348;53.392;-6.248;2022-09-09T03:56:23;99901.47;;;14.82;100.00
43707;BME280;61348;53.392;-6.248;2022-09-09T03:58:50;99896.69;;;14.82;100.00
43707;BME280;61348;53.392;-6.248;2022-09-09T04:01:18;99898.28;;;14.83;100.00
43707;BME280;61348;53.392;-6.248;2022-09-09T04:03:44;99902.25;;;14.86;100.00
43707;BME280;61348;53.392;-6.248;2022-09-09T04:06:12;99896.69;;;14.82;100.00
43707;BME280;61348;53.392;-6.248;2022-09-09T04:08:41;99900.66;;;14.81;100.00
43707;BME280;61348;53.392;-6.248;2022-09-09T04:11:08;99897.88;;;14.81;100.00
43707;BME280;61348;53.392;-6.248;2022-09-09T04:13:37;99901.44;;;14.78;100.00
43707;BME280;61348;53.392;-6.248;2022-09-09T04:16:06;99902.25;;;14.79;100.00
43707;BME280;61348;53.392;-6.248;2022-09-09T04:18:33;99897.47;;;14.79;100.00
43707;BME280;61348;53.392;-6.248;2022-09-09T04:21:01;99893.09;;;14.78;100.00
43707;BME280;61348;53.392;-6.248;2022-09-09T04:23:30;99902.22;;;14.75;100.00
43707;BME280;61348;53.392;-6.248;2022-09-09T04:25:58;99905.00;;;14.75;100.00
43707;BME280;61348;53.392;-6.248;2022-09-09T04:28:27;99897.44;;;14.72;100.00
43707;BME280;61348;53.392;-6.248;2022-09-09T04:30:55;99918.16;;;14.71;100.00
43707;BME280;61348;53.392;-6.248;2022-09-09T04:33:24;99911.78;;;14.71;100.00
43707;BME280;61348;53.392;-6.248;2022-09-09T04:35:53;99910.97;;;14.70;100.00
43707;BME280;61348;53.392;-6.248;2022-09-09T04:38:20;99907.00;;;14.71;100.00
43707;BME280;61348;53.392;-6.248;2022-09-09T04:40:50;99914.97;;;14.73;100.00
43707;BME280;61348;53.392;-6.248;2022-09-09T04:43:18;99897.44;;;14.72;100.00
43707;BME280;61348;53.392;-6.248;2022-09-09T04:45:49;99909.41;;;14.69;100.00
43707;BME280;61348;53.392;-6.248;2022-09-09T04:48:18;99918.16;;;14.71;100.00
43707;BME280;61348;53.392;-6.248;2022-09-09T04:50:54;99910.59;;;14.72;100.00
43707;BME280;61348;53.392;-6.248;2022-09-09T04:53:21;99915.75;;;14.70;100.00
43707;BME280;61348;53.392;-6.248;2022-09-09T04:55:48;99910.97;;;14.70;100.00
43707;BME280;61348;53.392;-6.248;2022-09-09T04:58:15;99913.75;;;14.70;100.00
43707;BME280;61348;53.392;-6.248;2022-09-09T05:00:42;99915.34;;;14.68;100.00
43707;BME280;61348;53.392;-6.248;2022-09-09T05:03:09;99906.59;;;14.69;100.00
43707;BME280;61348;53.392;-6.248;2022-09-09T05:05:35;99914.16;;;14.69;100.00
43707;BME280;61348;53.392;-6.248;2022-09-09T05:08:06;99915.75;;;14.66;100.00
43707;BME280;61348;53.392;-6.248;2022-09-09T05:10:33;99918.13;;;14.68;100.00
43707;BME280;61348;53.392;-6.248;2022-09-09T05:13:00;99917.31;;;14.67;100.00
43707;BME280;61348;53.392;-6.248;2022-09-09T05:15:26;99914.53;;;14.67;100.00
43707;BME280;61348;53.392;-6.248;2022-09-09T05:18:00;99921.31;;;14.66;100.00
43707;BME280;61348;53.392;-6.248;2022-09-09T05:20:27;99926.09;;;14.66;100.00
43707;BME280;61348;53.392;-6.248;2022-09-09T05:22:55;99926.88;;;14.66;100.00
43707;BME280;61348;53.392;-6.248;2022-09-09T05:25:23;99922.09;;;14.63;100.00
43707;BME280;61348;53.392;-6.248;2022-09-09T05:27:58;99935.63;;;14.61;100.00
43707;BME280;61348;53.392;-6.248;2022-09-09T05:30:25;99926.84;;;14.59;100.00
43707;BME280;61348;53.392;-6.248;2022-09-09T05:32:56;99922.06;;;14.59;100.00
43707;BME280;61348;53.392;-6.248;2022-09-09T05:35:22;99928.44;;;14.60;100.00
43707;BME280;61348;53.392;-6.248;2022-09-09T05:37:49;99928.44;;;14.60;100.00
43707;BME280;61348;53.392;-6.248;2022-09-09T05:40:16;99933.63;;;14.61;100.00
43707;BME280;61348;53.392;-6.248;2022-09-09T05:42:42;99933.63;;;14.61;100.00
43707;BME280;61348;53.392;-6.248;2022-09-09T05:45:09;99938.00;;;14.62;100.00
43707;BME280;61348;53.392;-6.248;2022-09-09T05:47:36;99938.81;;;14.63;100.00
43707;BME280;61348;53.392;-6.248;2022-09-09T05:50:04;99941.19;;;14.64;100.00
43707;BME280;61348;53.392;-6.248;2022-09-09T05:52:31;99953.16;;;14.65;100.00
43707;BME280;61348;53.392;-6.248;2022-09-09T05:54:58;99955.56;;;14.67;100.00
43707;BME280;61348;53.392;-6.248;2022-09-09T05:57:25;99956.72;;;14.66;100.00
43707;BME280;61348;53.392;-6.248;2022-09-09T05:59:52;99964.28;;;14.65;100.00
43707;BME280;61348;53.392;-6.248;2022-09-09T06:02:20;99958.72;;;14.65;100.00
43707;BME280;61348;53.392;-6.248;2022-09-09T06:04:51;99960.31;;;14.66;100.00
43707;BME280;61348;53.392;-6.248;2022-09-09T06:07:17;99960.31;;;14.66;100.00
43707;BME280;61348;53.392;-6.248;2022-09-09T06:09:44;99966.28;;;14.68;100.00
43707;BME280;61348;53.392;-6.248;2022-09-09T06:12:11;99964.31;;;14.69;100.00
43707;BME280;61348;53.392;-6.248;2022-09-09T06:14:37;99968.69;;;14.70;100.00
43707;BME280;61348;53.392;-6.248;2022-09-09T06:17:08;99975.44;;;14.72;100.00
43707;BME280;61348;53.392;-6.248;2022-09-09T06:19:35;99974.28;;;14.73;100.00
43707;BME280;61348;53.392;-6.248;2022-09-09T06:22:01;99979.44;;;14.75;100.00
43707;BME280;61348;53.392;-6.248;2022-09-09T06:24:28;99980.25;;;14.75;100.00
43707;BME280;61348;53.392;-6.248;2022-09-09T06:26:56;99980.25;;;14.75;100.00
43707;BME280;61348;53.392;-6.248;2022-09-09T06:29:25;99991.38;;;14.75;100.00
43707;BME280;61348;53.392;-6.248;2022-09-09T06:31:51;99995.78;;;14.76;100.00
43707;BME280;61348;53.392;-6.248;2022-09-09T06:34:18;99993.00;;;14.76;100.00
43707;BME280;61348;53.392;-6.248;2022-09-09T06:36:45;100000.94;;;14.78;100.00
43707;BME280;61348;53.392;-6.248;2022-09-09T06:39:12;99998.97;;;14.78;100.00
43707;BME280;61348;53.392;-6.248;2022-09-09T06:41:41;100000.19;;;14.81;100.00
43707;BME280;61348;53.392;-6.248;2022-09-09T06:44:10;100006.56;;;14.81;100.00
43707;BME280;61348;53.392;-6.248;2022-09-09T06:46:39;100014.91;;;14.81;100.00
43707;BME280;61348;53.392;-6.248;2022-09-09T06:49:08;100012.13;;;14.81;100.00
43707;BME280;61348;53.392;-6.248;2022-09-09T06:51:38;100014.91;;;14.81;100.00
43707;BME280;61348;53.392;-6.248;2022-09-09T06:54:10;100019.31;;;14.82;100.00
43707;BME280;61348;53.392;-6.248;2022-09-09T06:56:40;100015.31;;;14.83;100.00
43707;BME280;61348;53.392;-6.248;2022-09-09T06:59:09;100020.88;;;14.83;100.00
43707;BME280;61348;53.392;-6.248;2022-09-09T07:01:38;100019.72;;;14.84;100.00
43707;BME280;61348;53.392;-6.248;2022-09-09T07:04:08;100034.03;;;14.86;100.00
43707;BME280;61348;53.392;-6.248;2022-09-09T07:06:41;100042.41;;;14.86;100.00
43707;BME280;61348;53.392;-6.248;2022-09-09T07:09:11;100046.81;;;14.87;100.00
43707;BME280;61348;53.392;-6.248;2022-09-09T07:11:41;100043.63;;;14.89;100.00
43707;BME280;61348;53.392;-6.248;2022-09-09T07:14:10;100060.34;;;14.92;100.00
43707;BME280;61348;53.392;-6.248;2022-09-09T07:16:41;100046.81;;;14.94;100.00
43707;BME280;61348;53.392;-6.248;2022-09-09T07:19:09;100063.97;;;15.00;100.00
43707;BME280;61348;53.392;-6.248;2022-09-09T07:21:36;100054.44;;;15.01;100.00
43707;BME280;61348;53.392;-6.248;2022-09-09T07:24:03;100057.59;;;14.99;100.00
43707;BME280;61348;53.392;-6.248;2022-09-09T07:26:34;100064.78;;;15.00;100.00
43707;BME280;61348;53.392;-6.248;2022-09-09T07:29:03;100078.72;;;15.04;100.00
43707;BME280;61348;53.392;-6.248;2022-09-09T07:31:34;100077.97;;;15.10;100.00
43707;BME280;61348;53.392;-6.248;2022-09-09T07:34:03;100077.19;;;15.13;100.00
43707;BME280;61348;53.392;-6.248;2022-09-09T07:36:32;100075.19;;;15.17;100.00
43707;BME280;61348;53.392;-6.248;2022-09-09T07:39:05;100093.56;;;15.22;100.00
43707;BME280;61348;53.392;-6.248;2022-09-09T07:41:38;100082.41;;;15.25;100.00
43707;BME280;61348;53.392;-6.248;2022-09-09T07:44:09;100083.63;;;15.32;100.00
43707;BME280;61348;53.392;-6.248;2022-09-09T07:46:37;100082.84;;;15.38;100.00
43707;BME280;61348;53.392;-6.248;2022-09-09T07:49:07;100099.66;;;15.49;100.00
43707;BME280;61348;53.392;-6.248;2022-09-09T07:51:35;100089.31;;;15.60;100.00
43707;BME280;61348;53.392;-6.248;2022-09-09T07:54:06;100095.34;;;15.72;100.00
43707;BME280;61348;53.392;-6.248;2022-09-09T07:56:33;100099.75;;;15.88;100.00
43707;BME280;61348;53.392;-6.248;2022-09-09T07:59:00;100104.94;;;16.03;100.00
43707;BME280;61348;53.392;-6.248;2022-09-09T08:01:33;100097.00;;;16.19;100.00
43707;BME280;61348;53.392;-6.248;2022-09-09T08:04:03;100106.56;;;16.32;100.00
43707;BME280;61348;53.392;-6.248;2022-09-09T08:06:32;100116.16;;;16.38;100.00
43707;BME280;61348;53.392;-6.248;2022-09-09T08:09:02;100118.53;;;16.29;100.00
43707;BME280;61348;53.392;-6.248;2022-09-09T08:11:30;100120.91;;;16.24;100.00
43707;BME280;61348;53.392;-6.248;2022-09-09T08:14:04;100132.09;;;16.24;100.00
43707;BME280;61348;53.392;-6.248;2022-09-09T08:16:33;100136.09;;;16.33;100.00
43707;BME280;61348;53.392;-6.248;2022-09-09T08:19:03;100136.91;;;16.59;100.00
43707;BME280;61348;53.392;-6.248;2022-09-09T08:21:31;100137.66;;;16.87;100.00
43707;BME280;61348;53.392;-6.248;2022-09-09T08:24:02;100135.25;;;17.07;100.00
43707;BME280;61348;53.392;-6.248;2022-09-09T08:26:34;100143.22;;;17.09;100.00
43707;BME280;61348;53.392;-6.248;2022-09-09T08:29:04;100148.84;;;17.01;100.00
43707;BME280;61348;53.392;-6.248;2022-09-09T08:31:36;100147.25;;;16.97;100.00
43707;BME280;61348;53.392;-6.248;2022-09-09T08:34:04;100159.63;;;17.03;100.00
43707;BME280;61348;53.392;-6.248;2022-09-09T08:36:34;100157.22;;;17.12;100.00
43707;BME280;61348;53.392;-6.248;2022-09-09T08:39:04;100165.53;;;17.26;100.00
43707;BME280;61348;53.392;-6.248;2022-09-09T08:53:28;100177.91;;;17.32;99.39
43707;BME280;61348;53.392;-6.248;2022-09-09T08:56:07;100179.94;;;17.21;98.61
43707;BME280;61348;53.392;-6.248;2022-09-09T08:58:49;100180.34;;;17.20;98.55
43707;BME280;61348;53.392;-6.248;2022-09-09T09:01:18;100188.75;;;17.16;97.67
43707;BME280;61348;53.392;-6.248;2022-09-09T09:09:07;100209.13;;;17.13;96.86
43707;BME280;61348;53.392;-6.248;2022-09-09T09:11:39;100213.94;;;17.13;96.50
43707;BME280;61348;53.392;-6.248;2022-09-09T09:14:20;100216.75;;;17.09;96.35
43707;BME280;61348;53.392;-6.248;2022-09-09T09:16:57;100221.13;;;17.03;96.04
43707;BME280;61348;53.392;-6.248;2022-09-09T09:19:25;100221.53;;;16.98;96.05
43707;BME280;61348;53.392;-6.248;2022-09-09T09:27:14;100233.53;;;17.02;95.30
43707;BME280;61348;53.392;-6.248;2022-09-09T09:29:42;100233.53;;;17.09;94.98
43707;BME280;61348;53.392;-6.248;2022-09-09T09:32:33;100231.94;;;17.15;94.41
43707;BME280;61348;53.392;-6.248;2022-09-09T09:35:06;100251.09;;;17.17;94.33
43707;BME280;61348;53.392;-6.248;2022-09-09T09:37:36;100244.28;;;17.21;94.05
43707;BME280;61348;53.392;-6.248;2022-09-09T09:40:17;100239.91;;;17.31;94.12
43707;BME280;61348;53.392;-6.248;2022-09-09T09:42:58;100251.84;;;17.52;94.23
43707;BME280;61348;53.392;-6.248;2022-09-09T09:45:41;100249.81;;;17.71;92.76
43707;BME280;61348;53.392;-6.248;2022-09-09T09:48:27;100258.97;;;17.75;92.08
43707;BME280;61348;53.392;-6.248;2022-09-09T09:51:08;100261.78;;;17.78;91.81
43707;BME280;61348;53.392;-6.248;2022-09-09T09:53:37;100268.19;;;17.79;91.68
43707;BME280;61348;53.392;-6.248;2022-09-09T09:56:09;100276.59;;;17.79;91.36
43707;BME280;61348;53.392;-6.248;2022-09-09T10:01:24;100271.38;;;17.81;91.12
43707;BME280;61348;53.392;-6.248;2022-09-09T10:04:14;100278.56;;;17.82;90.91
43707;BME280;61348;53.392;-6.248;2022-09-09T10:06:42;100274.56;;;17.83;91.07
43707;BME280;61348;53.392;-6.248;2022-09-09T10:14:30;100286.47;;;18.01;89.57
43707;BME280;61348;53.392;-6.248;2022-09-09T10:19:33;100285.66;;;18.07;89.14
43707;BME280;61348;53.392;-6.248;2022-09-09T10:22:27;100281.59;;;18.19;89.10
43707;BME280;61348;53.392;-6.248;2022-09-09T10:29:01;100291.84;;;18.57;87.77
43707;BME280;61348;53.392;-6.248;2022-09-09T10:37:16;100308.31;;;18.41;86.68
43707;BME280;61348;53.392;-6.248;2022-09-09T10:39:56;100304.34;;;18.35;86.59
43707;BME280;61348;53.392;-6.248;2022-09-09T10:42:30;100302.69;;;18.52;86.45
43707;BME280;61348;53.392;-6.248;2022-09-09T10:45:20;100308.66;;;19.57;83.47
43707;BME280;61348;53.392;-6.248;2022-09-09T10:48:06;100318.38;;;20.53;79.88
43707;BME280;61348;53.392;-6.248;2022-09-09T10:50:55;100313.72;;;20.70;78.86
43707;BME280;61348;53.392;-6.248;2022-09-09T10:56:12;100312.38;;;20.18;79.39
43707;BME280;61348;53.392;-6.248;2022-09-09T11:01:18;100323.34;;;19.75;79.73
43707;BME280;61348;53.392;-6.248;2022-09-09T11:03:53;100324.28;;;19.61;79.98
43707;BME280;61348;53.392;-6.248;2022-09-09T11:06:28;100331.19;;;19.53;79.53
43707;BME280;61348;53.392;-6.248;2022-09-09T11:08:57;100336.50;;;19.37;79.13
43707;BME280;61348;53.392;-6.248;2022-09-09T11:11:53;100334.19;;;19.25;79.85
43707;BME280;61348;53.392;-6.248;2022-09-09T11:17:06;100339.03;;;19.24;80.25
43707;BME280;61348;53.392;-6.248;2022-09-09T11:19:42;100340.50;;;19.43;79.53
43707;BME280;61348;53.392;-6.248;2022-09-09T11:22:39;100340.50;;;19.43;79.24
43707;BME280;61348;53.392;-6.248;2022-09-09T11:25:35;100343.63;;;19.52;78.78
43707;BME280;61348;53.392;-6.248;2022-09-09T11:28:25;100343.53;;;19.59;77.55
43707;BME280;61348;53.392;-6.248;2022-09-09T11:33:55;100351.47;;;19.71;76.88
43707;BME280;61348;53.392;-6.248;2022-09-09T11:36:28;100349.84;;;19.70;77.17
43707;BME280;61348;53.392;-6.248;2022-09-09T11:41:37;100353.78;;;19.80;76.31
43707;BME280;61348;53.392;-6.248;2022-09-09T11:44:11;100363.50;;;19.72;76.58
43707;BME280;61348;53.392;-6.248;2022-09-09T11:46:41;100354.03;;;19.55;76.55
43707;BME280;61348;53.392;-6.248;2022-09-09T11:49:28;100357.00;;;19.37;77.44
43707;BME280;61348;53.392;-6.248;2022-09-09T11:51:55;100357.09;;;19.20;77.75
43707;BME280;61348;53.392;-6.248;2022-09-09T11:54:31;100359.16;;;19.16;78.07
43707;BME280;61348;53.392;-6.248;2022-09-09T11:56:59;100359.06;;;19.26;78.20
43707;BME280;61348;53.392;-6.248;2022-09-09T11:59:32;100366.91;;;19.49;78.43
43707;BME280;61348;53.392;-6.248;2022-09-09T12:02:10;100364.81;;;19.60;77.45
43707;BME280;61348;53.392;-6.248;2022-09-09T12:04:46;100369.28;;;19.54;77.22
43707;BME280;61348;53.392;-6.248;2022-09-09T12:12:46;100366.25;;;19.27;77.76
43707;BME280;61348;53.392;-6.248;2022-09-09T12:17:55;100381.25;;;19.07;77.89
43707;BME280;61348;53.392;-6.248;2022-09-09T12:20:37;100377.72;;;18.96;78.23
43707;BME280;61348;53.392;-6.248;2022-09-09T12:28:51;100388.22;;;18.84;78.71
43707;BME280;61348;53.392;-6.248;2022-09-09T12:31:30;100388.16;;;18.92;78.62
43707;BME280;61348;53.392;-6.248;2022-09-09T12:36:37;100394.53;;;19.03;78.55
43707;BME280;61348;53.392;-6.248;2022-09-09T12:39:33;100397.63;;;19.19;78.99
43707;BME280;61348;53.392;-6.248;2022-09-09T12:42:02;100394.28;;;19.38;78.29
43707;BME280;61348;53.392;-6.248;2022-09-09T12:44:30;100399.75;;;19.56;78.30
43707;BME280;61348;53.392;-6.248;2022-09-09T12:47:01;100398.44;;;19.67;77.94
43707;BME280;61348;53.392;-6.248;2022-09-09T12:49:36;100412.06;;;19.72;77.52
43707;BME280;61348;53.392;-6.248;2022-09-09T12:52:08;100399.19;;;19.75;77.24
43707;BME280;61348;53.392;-6.248;2022-09-09T12:54:44;100394.69;;;19.81;77.13
43707;BME280;61348;53.392;-6.248;2022-09-09T12:57:14;100401.50;;;19.83;76.41
43707;BME280;61348;53.392;-6.248;2022-09-09T12:59:43;100410.66;;;19.91;76.24
43707;BME280;61348;53.392;-6.248;2022-09-09T13:02:23;100415.03;;;19.95;75.88
43707;BME280;61348;53.392;-6.248;2022-09-09T13:04:52;100416.25;;;19.94;75.71
43707;BME280;61348;53.392;-6.248;2022-09-09T13:07:20;100413.81;;;19.96;75.24
43707;BME280;61348;53.392;-6.248;2022-09-09T13:09:48;100414.66;;;19.93;75.08
43707;BME280;61348;53.392;-6.248;2022-09-09T13:12:21;100413.44;;;19.91;75.55
43707;BME280;61348;53.392;-6.248;2022-09-09T13:14:53;100425.56;;;19.88;75.65
43707;BME280;61348;53.392;-6.248;2022-09-09T13:17:24;100421.97;;;19.80;75.11
43707;BME280;61348;53.392;-6.248;2022-09-09T13:19:53;100435.75;;;19.68;75.42
43707;BME280;61348;53.392;-6.248;2022-09-09T13:22:34;100430.28;;;19.54;75.37
